createdAt,value
2022-11-30T00:01:15.876Z,85755.47
2022-11-30T00:03:42.945Z,85729.25
2022-11-30T00:06:12.798Z,85756.75
2022-11-30T00:08:40.026Z,85727.94
2022-11-30T00:11:13.807Z,85754.16
2022-11-30T00:13:42.089Z,85697.69
2022-11-30T00:16:09.914Z,85752.66
2022-11-30T00:18:37.772Z,85747.78
2022-11-30T00:21:11.139Z,85747.13
2022-11-30T00:23:40.684Z,85721.00
2022-11-30T00:26:09.908Z,85709.28
2022-11-30T00:28:38.804Z,85726.47
2022-11-30T00:31:08.918Z,85718.22
2022-11-30T00:33:38.391Z,85733.31
2022-11-30T00:36:13.506Z,85744.38
2022-11-30T00:38:40.613Z,85716.22
2022-11-30T00:41:07.848Z,85758.19
2022-11-30T00:43:35.018Z,85749.94
2022-11-30T00:46:02.017Z,85743.13
2022-11-30T00:48:29.383Z,85756.09
2022-11-30T00:50:56.504Z,85755.38
2022-11-30T00:53:23.783Z,85748.53
2022-11-30T00:55:50.958Z,85747.84
2022-11-30T00:58:18.048Z,85721.66
2022-11-30T01:00:45.054Z,85732.00
2022-11-30T01:03:12.565Z,85727.88
2022-11-30T01:05:39.925Z,85744.50
2022-11-30T01:08:09.182Z,85708.66
2022-11-30T01:10:37.978Z,85712.09
2022-11-30T01:13:05.294Z,85730.72
2022-11-30T01:15:36.279Z,85746.56
2022-11-30T01:18:03.382Z,85743.16
2022-11-30T01:20:30.409Z,85744.50
2022-11-30T01:22:57.277Z,85722.56
2022-11-30T01:25:24.396Z,85722.56
2022-11-30T01:27:51.662Z,85728.13
2022-11-30T01:30:19.074Z,85666.84
2022-11-30T01:32:46.194Z,85741.81
2022-11-30T01:35:13.350Z,85690.91
2022-11-30T01:37:40.326Z,85742.53
2022-11-30T01:40:08.546Z,85728.16
2022-11-30T01:42:38.148Z,85735.69
2022-11-30T01:45:07.471Z,85723.28
2022-11-30T01:47:42.334Z,85688.25
2022-11-30T01:50:15.385Z,85737.06
2022-11-30T01:52:50.836Z,85663.50
2022-11-30T01:55:32.004Z,85731.00
2022-11-30T01:58:12.458Z,85726.16
2022-11-30T02:00:44.286Z,85736.34
2022-11-30T02:03:41.665Z,85735.00
2022-11-30T02:06:08.751Z,85704.03
2022-11-30T02:08:35.792Z,85708.16
2022-11-30T02:11:11.371Z,85715.13
2022-11-30T02:13:57.110Z,85722.69
2022-11-30T02:16:48.649Z,85730.91
2022-11-30T02:19:53.163Z,85736.97
2022-11-30T02:23:00.857Z,85738.44
2022-11-30T02:25:43.391Z,85737.72
2022-11-30T02:28:13.245Z,85741.88
2022-11-30T02:30:45.247Z,85741.84
2022-11-30T02:33:16.748Z,85712.97
2022-11-30T02:35:51.627Z,85744.59
2022-11-30T02:38:23.843Z,85689.66
2022-11-30T02:40:51.162Z,85707.53
2022-11-30T02:43:24.278Z,85710.94
2022-11-30T02:46:09.325Z,85719.19
2022-11-30T02:49:01.681Z,85731.56
2022-11-30T02:51:31.209Z,85683.44
2022-11-30T02:53:58.380Z,85652.38
2022-11-30T02:56:25.985Z,85708.06
2022-11-30T02:58:53.098Z,85695.06
2022-11-30T03:01:20.196Z,85721.22
2022-11-30T03:03:47.469Z,85731.53
2022-11-30T03:06:14.656Z,85605.63
2022-11-30T03:08:41.563Z,85729.50
2022-11-30T03:11:08.616Z,85691.66
2022-11-30T03:13:35.518Z,85704.69
2022-11-30T03:16:10.931Z,85714.28
2022-11-30T03:18:40.317Z,85741.81
2022-11-30T03:21:12.419Z,85743.88
2022-11-30T03:23:40.977Z,85750.00
2022-11-30T03:26:09.154Z,85734.91
2022-11-30T03:28:37.494Z,85720.41
2022-11-30T03:31:05.909Z,85740.31
2022-11-30T03:33:33.179Z,85743.00
2022-11-30T03:36:05.538Z,85731.25
2022-11-30T03:38:33.174Z,85744.44
2022-11-30T03:41:05.012Z,85716.16
2022-11-30T03:43:32.577Z,85687.94
2022-11-30T03:45:59.599Z,85707.28
2022-11-30T03:48:26.848Z,85742.38
2022-11-30T03:50:54.150Z,85714.81
2022-11-30T03:53:22.627Z,85727.94
2022-11-30T03:55:58.128Z,85712.78
2022-11-30T03:58:26.157Z,85717.56
2022-11-30T04:01:00.363Z,85710.69
2022-11-30T04:03:27.778Z,85714.16
2022-11-30T04:05:54.734Z,85751.97
2022-11-30T04:08:22.428Z,85745.19
2022-11-30T04:10:57.654Z,85751.31
2022-11-30T04:13:25.709Z,85752.69
2022-11-30T04:15:54.024Z,85767.75
2022-11-30T04:18:22.997Z,85760.97
2022-11-30T04:20:55.563Z,85737.59
2022-11-30T04:23:24.442Z,85745.06
2022-11-30T04:25:52.121Z,85729.81
2022-11-30T04:28:19.821Z,85765.03
2022-11-30T04:30:47.464Z,85727.75
2022-11-30T04:33:16.045Z,85766.28
2022-11-30T04:35:50.419Z,85768.34
2022-11-30T04:38:17.712Z,85756.63
2022-11-30T04:40:44.641Z,85752.53
2022-11-30T04:43:12.986Z,85745.50
2022-11-30T04:45:40.298Z,85760.66
2022-11-30T04:48:08.451Z,85736.63
2022-11-30T04:50:36.077Z,85763.50
2022-11-30T04:53:03.446Z,85763.50
2022-11-30T04:55:30.432Z,85702.19
2022-11-30T04:57:57.439Z,85671.25
2022-11-30T05:00:24.728Z,85719.47
2022-11-30T05:02:53.092Z,85774.56
2022-11-30T05:05:20.722Z,85733.19
2022-11-30T05:07:51.807Z,85758.66
2022-11-30T05:10:19.011Z,85753.84
2022-11-30T05:12:45.891Z,85739.47
2022-11-30T05:15:12.907Z,85768.34
2022-11-30T05:17:39.857Z,85756.69
2022-11-30T05:20:07.373Z,85729.19
2022-11-30T05:22:35.369Z,85742.94
2022-11-30T05:25:02.837Z,85778.72
2022-11-30T05:27:29.887Z,85784.19
2022-11-30T05:29:56.982Z,85777.31
2022-11-30T05:32:23.843Z,85755.25
2022-11-30T05:34:51.985Z,85747.00
2022-11-30T05:37:20.047Z,85762.09
2022-11-30T05:39:47.015Z,85788.34
2022-11-30T05:42:14.020Z,85790.44
2022-11-30T05:44:40.914Z,85782.94
2022-11-30T05:47:07.832Z,85785.63
2022-11-30T05:49:34.848Z,85795.94
2022-11-30T05:52:01.847Z,85745.69
2022-11-30T05:54:28.820Z,85798.03
2022-11-30T05:56:55.762Z,85805.59
2022-11-30T05:59:23.506Z,85804.19
2022-11-30T06:01:53.069Z,85785.53
2022-11-30T06:04:21.793Z,85764.94
2022-11-30T06:06:49.697Z,85777.28
2022-11-30T06:09:16.938Z,85795.22
2022-11-30T06:11:43.937Z,85813.72
2022-11-30T06:14:10.923Z,85791.09
2022-11-30T06:16:41.183Z,85813.84
2022-11-30T06:19:08.140Z,85811.75
2022-11-30T06:21:35.299Z,85803.47
2022-11-30T06:24:02.258Z,85798.03
2022-11-30T06:26:29.234Z,85815.91
2022-11-30T06:28:56.346Z,85813.16
2022-11-30T06:31:23.453Z,85795.25
2022-11-30T06:33:50.568Z,85811.78
2022-11-30T06:36:22.821Z,85817.22
2022-11-30T06:38:50.803Z,85800.75
2022-11-30T06:41:17.808Z,85818.72
2022-11-30T06:43:44.835Z,85788.38
2022-11-30T06:46:11.957Z,85789.81
2022-11-30T06:48:39.166Z,85822.84
2022-11-30T06:51:10.672Z,85803.66
2022-11-30T06:53:37.690Z,85795.34
2022-11-30T06:56:10.754Z,85811.88
2022-11-30T06:58:41.631Z,85822.19
2022-11-30T07:01:11.382Z,85802.94
2022-11-30T07:03:38.884Z,85795.34
2022-11-30T07:06:11.316Z,85821.53
2022-11-30T07:08:39.486Z,85822.19
2022-11-30T07:11:07.518Z,85813.28
2022-11-30T07:13:34.778Z,85820.84
2022-11-30T07:16:06.762Z,85820.88
2022-11-30T07:18:34.498Z,85790.59
2022-11-30T07:21:02.633Z,85805.69
2022-11-30T07:23:55.535Z,85816.09
2022-11-30T07:26:23.513Z,85812.59
2022-11-30T07:28:54.824Z,85786.44
2022-11-30T07:31:23.758Z,85817.31
2022-11-30T07:33:51.847Z,85797.41
2022-11-30T07:36:20.421Z,85809.13
2022-11-30T07:38:47.721Z,85802.28
2022-11-30T07:41:14.778Z,85822.34
2022-11-30T07:43:43.880Z,85820.22
2022-11-30T07:46:13.635Z,85825.69
2022-11-30T07:48:41.196Z,85817.44
2022-11-30T07:51:13.124Z,85782.31
2022-11-30T07:53:41.626Z,85827.19
2022-11-30T07:56:11.555Z,85835.44
2022-11-30T07:58:39.173Z,85832.63
2022-11-30T08:01:09.209Z,85833.34
2022-11-30T08:03:37.487Z,85839.47
2022-11-30T08:06:07.676Z,85827.13
2022-11-30T08:08:38.080Z,85833.94
2022-11-30T08:11:06.942Z,85828.38
2022-11-30T08:13:34.286Z,85826.34
2022-11-30T08:16:07.059Z,85836.59
2022-11-30T08:18:34.434Z,85811.88
2022-11-30T08:21:04.056Z,85831.09
2022-11-30T08:23:34.446Z,85793.91
2022-11-30T08:26:16.461Z,85822.06
2022-11-30T08:28:45.105Z,85827.63
2022-11-30T08:31:16.152Z,85801.44
2022-11-30T08:33:43.177Z,85797.94
2022-11-30T08:36:16.587Z,85811.72
2022-11-30T08:38:45.028Z,85777.22
2022-11-30T08:41:14.398Z,85793.88
2022-11-30T08:43:41.637Z,85829.00
2022-11-30T08:52:15.941Z,85785.47
2022-11-30T08:54:32.579Z,85820.00
2022-11-30T08:56:59.546Z,85815.94
2022-11-30T08:59:26.904Z,85815.94
2022-11-30T09:01:53.845Z,85810.47
2022-11-30T09:04:20.934Z,85807.06
2022-11-30T09:06:48.101Z,85765.09
2022-11-30T09:09:15.130Z,85810.44
2022-11-30T09:11:42.049Z,85754.09
2022-11-30T09:14:09.895Z,85824.25
2022-11-30T09:16:36.947Z,85811.75
2022-11-30T09:19:04.187Z,85828.31
2022-11-30T09:21:31.268Z,85824.19
2022-11-30T09:23:58.214Z,85821.53
2022-11-30T09:26:25.749Z,85801.47
2022-11-30T09:28:54.012Z,85801.47
2022-11-30T09:31:26.807Z,85809.09
2022-11-30T09:33:56.692Z,85829.06
2022-11-30T09:36:27.418Z,85818.78
2022-11-30T09:38:56.053Z,85810.28
2022-11-30T09:41:22.923Z,85821.47
2022-11-30T09:44:04.923Z,85821.44
2022-11-30T09:46:49.605Z,85788.34
2022-11-30T09:49:25.202Z,85820.06
2022-11-30T09:51:55.711Z,85804.25
2022-11-30T09:54:35.604Z,85813.31
2022-11-30T09:57:17.244Z,85817.44
2022-11-30T09:59:53.293Z,85725.19
2022-11-30T10:02:22.525Z,85741.81
2022-11-30T10:04:50.078Z,85778.94
2022-11-30T10:07:45.154Z,85816.88
2022-11-30T10:10:32.732Z,85825.09
2022-11-30T10:13:23.261Z,85823.72
2022-11-30T10:16:17.906Z,85821.66
2022-11-30T10:19:05.607Z,85816.84
2022-11-30T10:21:51.668Z,85818.84
2022-11-30T10:24:47.403Z,85813.28
2022-11-30T10:27:34.521Z,85789.31
2022-11-30T10:30:02.390Z,85816.19
2022-11-30T10:32:38.369Z,85818.94
2022-11-30T10:35:41.591Z,85824.44
2022-11-30T10:38:38.299Z,85819.63
2022-11-30T10:41:21.982Z,85813.47
2022-11-30T10:43:51.731Z,85821.66
2022-11-30T10:46:22.919Z,85813.44
2022-11-30T10:48:58.803Z,85810.72
2022-11-30T10:51:27.376Z,85813.41
2022-11-30T10:53:54.340Z,85798.34
2022-11-30T10:56:21.360Z,85813.44
2022-11-30T10:58:53.957Z,85790.06
2022-11-30T11:01:30.234Z,85806.66
2022-11-30T11:04:17.162Z,85812.16
2022-11-30T11:06:57.005Z,85801.16
2022-11-30T11:09:29.833Z,85797.06
2022-11-30T11:12:18.536Z,85799.75
2022-11-30T11:14:45.718Z,85788.78
2022-11-30T11:17:18.865Z,85792.94
2022-11-30T11:19:48.620Z,85784.69
2022-11-30T11:22:31.163Z,85788.84
2022-11-30T11:25:21.730Z,85746.16
2022-11-30T11:27:55.479Z,85792.25
2022-11-30T11:30:25.055Z,85793.63
2022-11-30T11:33:00.371Z,85793.59
2022-11-30T11:35:49.825Z,85775.03
2022-11-30T11:38:29.594Z,85792.88
2022-11-30T11:41:12.599Z,85799.78
2022-11-30T11:44:22.532Z,85802.53
2022-11-30T11:47:02.172Z,85800.47
2022-11-30T11:49:32.581Z,85780.44
2022-11-30T11:52:01.029Z,85756.38
2022-11-30T11:54:43.096Z,85809.34
2022-11-30T11:57:16.288Z,85819.69
2022-11-30T12:00:05.679Z,85821.75
2022-11-30T12:02:42.893Z,85810.84
2022-11-30T12:05:32.988Z,85814.94
2022-11-30T12:08:14.775Z,85823.16
2022-11-30T12:10:52.126Z,85816.25
2022-11-30T12:13:27.401Z,85806.69
2022-11-30T12:16:14.595Z,85814.91
2022-11-30T12:18:47.594Z,85816.25
2022-11-30T12:21:29.700Z,85812.16
2022-11-30T12:24:25.706Z,85814.94
2022-11-30T12:27:12.736Z,85823.16
2022-11-30T12:29:52.601Z,85818.38
2022-11-30T12:32:31.695Z,85819.03
2022-11-30T12:35:07.863Z,85817.66
2022-11-30T12:37:59.115Z,85825.91
2022-11-30T12:40:46.926Z,85812.19
2022-11-30T12:43:19.980Z,85825.28
2022-11-30T12:45:48.698Z,85810.16
2022-11-30T12:48:57.026Z,85819.81
2022-11-30T12:51:39.775Z,85788.78
2022-11-30T12:54:26.621Z,85814.25
2022-11-30T12:57:30.356Z,85833.50
2022-11-30T13:00:14.296Z,85828.66
2022-11-30T13:03:06.261Z,85816.31
2022-11-30T13:05:43.617Z,85825.88
2022-11-30T13:08:27.962Z,85827.25
2022-11-30T13:11:00.440Z,85801.03
2022-11-30T13:13:31.793Z,85809.31
2022-11-30T13:16:01.167Z,85832.75
2022-11-30T13:18:28.609Z,85804.50
2022-11-30T13:21:10.780Z,85827.25
2022-11-30T13:23:45.674Z,85788.72
2022-11-30T13:26:34.371Z,85823.16
2022-11-30T13:29:25.867Z,85830.63
2022-11-30T13:32:05.606Z,85830.66
2022-11-30T13:34:33.234Z,85818.94
2022-11-30T13:37:23.119Z,85832.72
2022-11-30T13:39:57.682Z,85840.97
2022-11-30T13:42:36.908Z,85809.31
2022-11-30T13:45:12.771Z,85834.78
2022-11-30T13:47:56.487Z,85835.50
2022-11-30T13:50:32.764Z,85791.41
2022-11-30T13:53:08.660Z,85835.47
2022-11-30T13:55:41.899Z,85828.63
2022-11-30T13:58:11.715Z,85816.19
2022-11-30T14:00:40.683Z,85838.94
2022-11-30T14:06:44.074Z,85837.59
2022-11-30T14:09:37.448Z,85823.84
2022-11-30T14:12:37.022Z,85830.03
2022-11-30T14:15:47.124Z,85814.91
2022-11-30T14:18:20.234Z,85837.44
2022-11-30T14:21:15.278Z,85834.06
2022-11-30T14:23:48.258Z,85832.66
2022-11-30T14:26:18.180Z,85836.81
2022-11-30T14:29:09.999Z,85833.38
2022-11-30T14:31:48.090Z,85803.78
2022-11-30T14:34:21.413Z,85817.56
2022-11-30T14:36:52.997Z,85814.09
2022-11-30T14:39:43.929Z,85830.59
2022-11-30T14:42:26.396Z,85832.03
2022-11-30T14:44:54.354Z,85832.03
2022-11-30T14:47:26.027Z,85837.53
2022-11-30T14:49:56.495Z,85823.78
2022-11-30T14:52:38.210Z,85798.31
2022-11-30T14:55:08.450Z,85836.19
2022-11-30T14:58:04.030Z,85821.78
2022-11-30T15:00:39.799Z,85827.28
2022-11-30T15:03:27.285Z,85832.75
2022-11-30T15:05:57.186Z,85806.63
2022-11-30T15:08:34.804Z,85829.34
2022-11-30T15:11:08.690Z,85827.25
2022-11-30T15:13:43.260Z,85809.38
2022-11-30T15:16:21.852Z,85796.31
2022-11-30T15:18:49.510Z,85777.06
2022-11-30T15:21:25.190Z,85834.88
2022-11-30T15:23:54.445Z,85830.09
2022-11-30T15:26:23.833Z,85833.53
2022-11-30T15:28:57.506Z,85840.38
2022-11-30T15:31:25.482Z,85798.34
2022-11-30T15:33:52.396Z,85810.72
2022-11-30T15:36:32.600Z,85813.50
2022-11-30T15:39:06.451Z,85825.09
2022-11-30T15:41:35.355Z,85836.16
2022-11-30T15:44:02.601Z,85847.19
2022-11-30T15:46:30.959Z,85849.28
2022-11-30T15:49:15.514Z,85853.41
2022-11-30T15:51:47.516Z,85809.34
2022-11-30T15:54:15.526Z,85841.03
2022-11-30T15:56:55.695Z,85847.91
2022-11-30T15:59:29.063Z,85784.59
2022-11-30T16:02:14.438Z,85846.50
2022-11-30T16:04:56.734Z,85843.75
2022-11-30T16:07:28.415Z,85821.69
2022-11-30T16:10:11.394Z,85813.44
2022-11-30T16:12:38.349Z,85855.44
2022-11-30T16:15:18.007Z,85845.81
2022-11-30T16:17:45.024Z,85846.50
2022-11-30T16:20:14.088Z,85847.88
2022-11-30T16:22:42.483Z,85819.63
2022-11-30T16:25:20.574Z,85832.72
2022-11-30T16:27:48.271Z,85847.19
2022-11-30T16:30:17.913Z,85840.28
2022-11-30T16:32:45.186Z,85865.06
2022-11-30T16:35:14.892Z,85866.44
2022-11-30T16:37:41.833Z,85846.50
2022-11-30T16:40:09.221Z,85864.38
2022-11-30T16:42:36.184Z,85858.81
2022-11-30T16:45:03.218Z,85840.97
2022-11-30T16:47:30.198Z,85863.00
2022-11-30T16:49:57.268Z,85842.31
2022-11-30T16:52:24.312Z,85860.22
2022-11-30T16:54:51.205Z,85832.72
2022-11-30T16:57:18.150Z,85821.69
2022-11-30T16:59:45.301Z,85845.75
2022-11-30T17:02:18.853Z,85861.66
2022-11-30T17:04:46.659Z,85858.91
2022-11-30T17:07:14.189Z,85832.78
2022-11-30T17:09:41.092Z,85861.66
2022-11-30T17:12:09.677Z,85840.25
2022-11-30T17:14:36.691Z,85838.22
2022-11-30T17:17:03.744Z,85847.84
2022-11-30T17:19:30.728Z,85862.31
2022-11-30T17:21:57.696Z,85865.72
2022-11-30T17:24:24.615Z,85839.59
2022-11-30T17:26:51.550Z,85804.41
2022-11-30T17:29:18.525Z,85870.56
2022-11-30T17:31:45.820Z,85840.84
2022-11-30T17:34:12.795Z,85839.50
2022-11-30T17:36:39.765Z,85844.97
2022-11-30T17:39:07.985Z,85871.16
2022-11-30T17:41:35.179Z,85827.13
2022-11-30T17:44:03.170Z,85842.25
2022-11-30T17:46:30.303Z,85828.50
2022-11-30T17:48:57.469Z,85846.41
2022-11-30T17:51:24.527Z,85840.88
2022-11-30T17:53:51.538Z,85846.34
2022-11-30T17:56:18.477Z,85849.13
2022-11-30T17:58:46.470Z,85845.72
2022-11-30T18:01:18.571Z,85834.72
2022-11-30T18:03:46.230Z,85857.44
2022-11-30T18:06:13.628Z,85867.06
2022-11-30T18:08:40.699Z,85853.97
2022-11-30T18:11:12.365Z,85860.22
2022-11-30T18:13:40.227Z,85867.78
2022-11-30T18:16:08.389Z,85857.44
2022-11-30T18:18:35.424Z,85854.00
2022-11-30T18:21:06.548Z,85825.81
2022-11-30T18:23:35.158Z,85852.63
2022-11-30T18:26:04.314Z,85842.28
2022-11-30T18:28:31.771Z,85871.88
2022-11-30T18:30:59.005Z,85842.25
2022-11-30T18:33:26.215Z,85849.13
2022-11-30T18:36:01.081Z,85866.34
2022-11-30T18:38:31.525Z,85831.25
2022-11-30T18:41:01.275Z,85844.91
2022-11-30T18:43:30.606Z,85886.91
2022-11-30T18:46:08.606Z,85842.09
2022-11-30T18:48:36.819Z,85847.44
2022-11-30T18:51:15.691Z,85866.03
2022-11-30T18:53:43.289Z,85881.28
2022-11-30T18:56:15.913Z,85873.66
2022-11-30T18:58:43.789Z,85883.25
2022-11-30T19:01:14.971Z,85881.88
2022-11-30T19:03:42.242Z,85846.00
2022-11-30T19:06:10.928Z,85890.16
2022-11-30T19:08:39.790Z,85881.88
2022-11-30T19:11:09.603Z,85879.00
2022-11-30T19:13:37.423Z,85879.16
2022-11-30T19:16:13.694Z,85850.94
2022-11-30T19:18:40.827Z,85832.34
2022-11-30T19:21:19.298Z,85884.03
2022-11-30T19:23:47.086Z,85851.66
2022-11-30T19:26:14.818Z,85881.91
2022-11-30T19:28:43.413Z,85881.97
2022-11-30T19:31:13.667Z,85883.25
2022-11-30T19:33:42.331Z,85857.09
2022-11-30T19:36:17.362Z,85880.59
2022-11-30T19:38:44.658Z,85870.84
2022-11-30T19:41:13.344Z,85876.50
2022-11-30T19:43:41.251Z,85844.72
2022-11-30T19:46:12.058Z,85845.91
2022-11-30T19:48:40.431Z,85866.69
2022-11-30T19:51:13.409Z,85830.84
2022-11-30T19:53:44.292Z,85837.16
2022-11-30T19:56:15.076Z,85871.44
2022-11-30T19:58:44.078Z,85884.63
2022-11-30T20:01:16.121Z,85864.66
2022-11-30T20:03:44.583Z,85835.00
2022-11-30T20:06:11.965Z,85826.78
2022-11-30T20:08:39.069Z,85886.00
2022-11-30T20:11:11.263Z,85881.81
2022-11-30T20:13:40.845Z,85818.44
2022-11-30T20:16:12.943Z,85863.88
2022-11-30T20:18:45.506Z,85894.81
2022-11-30T20:21:24.796Z,85827.91
2022-11-30T20:23:53.462Z,85853.38
2022-11-30T20:26:30.332Z,85843.03
2022-11-30T20:28:58.658Z,85830.50
2022-11-30T20:31:26.460Z,85881.59
2022-11-30T20:33:54.001Z,85857.34
2022-11-30T20:36:21.891Z,85827.84
2022-11-30T20:38:48.943Z,85869.16
2022-11-30T20:41:18.350Z,85885.03
2022-11-30T20:43:46.443Z,85886.47
2022-11-30T20:46:21.330Z,85882.34
2022-11-30T20:48:49.347Z,85844.44
2022-11-30T20:51:31.237Z,85851.34
2022-11-30T20:54:07.187Z,85863.69
2022-11-30T20:56:36.691Z,85861.63
2022-11-30T20:59:12.413Z,85827.84
2022-11-30T21:01:42.252Z,85881.00
2022-11-30T21:04:09.657Z,85841.59
2022-11-30T21:06:36.930Z,85876.03
2022-11-30T21:09:04.616Z,85880.72
2022-11-30T21:11:31.789Z,85848.50
2022-11-30T21:13:58.920Z,85847.03
2022-11-30T21:16:29.107Z,85863.53
2022-11-30T21:18:58.835Z,85884.97
2022-11-30T21:21:28.843Z,85877.34
2022-11-30T21:24:02.379Z,85836.13
2022-11-30T21:26:32.171Z,85862.34
2022-11-30T21:29:12.206Z,85835.38
2022-11-30T21:31:39.678Z,85840.88
2022-11-30T21:34:06.971Z,85859.00
2022-11-30T21:36:33.967Z,85842.91
2022-11-30T21:39:06.797Z,85833.34
2022-11-30T21:41:39.069Z,85849.28
2022-11-30T21:44:08.342Z,85869.94
2022-11-30T21:46:35.468Z,85873.97
2022-11-30T21:49:03.159Z,85871.94
2022-11-30T21:51:32.101Z,85878.81
2022-11-30T21:54:01.629Z,85810.66
2022-11-30T21:56:31.312Z,85855.44
2022-11-30T21:58:59.051Z,85823.16
2022-11-30T22:01:30.186Z,85884.44
2022-11-30T22:03:59.207Z,85787.81
2022-11-30T22:06:28.064Z,85834.06
2022-11-30T22:09:03.368Z,85878.63
2022-11-30T22:11:31.610Z,85855.34
2022-11-30T22:13:58.838Z,85840.19
2022-11-30T22:16:32.386Z,85865.66
2022-11-30T22:19:02.928Z,85871.88
2022-11-30T22:21:31.469Z,85860.81
2022-11-30T22:24:00.535Z,85802.84
2022-11-30T22:26:29.600Z,85811.25
2022-11-30T22:29:11.213Z,85847.16
2022-11-30T22:31:40.819Z,85853.88
2022-11-30T22:34:08.362Z,85851.28
2022-11-30T22:36:37.634Z,85856.72
2022-11-30T22:39:16.841Z,85858.75
2022-11-30T22:41:45.557Z,85832.53
2022-11-30T22:44:17.040Z,85816.75
2022-11-30T22:46:44.712Z,85842.25
2022-11-30T22:49:21.118Z,85852.50
2022-11-30T22:51:49.596Z,85833.25
2022-11-30T22:54:16.882Z,85799.63
2022-11-30T22:56:44.917Z,85831.38
2022-11-30T22:59:13.158Z,85834.16
2022-11-30T23:01:44.487Z,85833.50
2022-11-30T23:04:14.053Z,85816.31
2022-11-30T23:06:42.954Z,85796.44
2022-11-30T23:09:16.932Z,85784.19
2022-11-30T23:11:44.445Z,85804.81
2022-11-30T23:14:12.377Z,85809.03
2022-11-30T23:16:40.153Z,85789.72
2022-11-30T23:19:07.757Z,85769.72
2022-11-30T23:21:40.923Z,85797.25
2022-11-30T23:24:12.936Z,85776.66
2022-11-30T23:26:39.869Z,85769.09
2022-11-30T23:29:10.047Z,85767.63
2022-11-30T23:31:39.696Z,85795.25
2022-11-30T23:34:09.946Z,85815.22
2022-11-30T23:36:37.103Z,85812.50
2022-11-30T23:39:09.775Z,85809.75
2022-11-30T23:41:37.136Z,85808.38
2022-11-30T23:44:04.902Z,85791.84
2022-11-30T23:46:31.880Z,85768.50
2022-11-30T23:48:58.882Z,85787.75
2022-11-30T23:51:26.206Z,85800.91
2022-11-30T23:53:53.887Z,85783.69
2022-11-30T23:56:22.468Z,85785.81
2022-11-30T23:58:50.458Z,85791.34
